Time;durP1;ratioP1;P1;durP2;ratioP2;P2;SDS_P1;SDS_P2;PMS_P1;PMS_P2;Temp;Humidity;BMP_temperature;BMP_pressure;BME280_temperature;BME280_humidity;BME280_pressure;Samples;Min_cycle;Max_cycle;Signal;HPM_P1;HPM_P2
2020/12/18 00:02:24;;;;;;;15.17;8.87;;;7.20;93.50;;;;;;5059569;28;20048;-81
2020/12/18 00:04:49;;;;;;;18.23;9.43;;;7.20;93.50;;;;;;5077290;28;20035;-81
2020/12/18 00:07:15;;;;;;;14.77;8.70;;;7.20;93.70;;;;;;5078254;28;20033;-80
2020/12/18 00:09:44;;;;;;;14.33;8.07;;;7.20;93.50;;;;;;5074505;28;20511;-81
2020/12/18 00:12:10;;;;;;;25.33;10.47;;;7.20;93.60;;;;;;5074922;28;20039;-81
2020/12/18 00:14:37;;;;;;;18.57;9.73;;;7.20;93.60;;;;;;5076988;28;20029;-81
2020/12/18 00:17:04;;;;;;;20.03;8.73;;;7.20;93.90;;;;;;5076049;28;20222;-82
2020/12/18 00:19:30;;;;;;;23.97;10.23;;;7.20;93.70;;;;;;5076274;28;20503;-82
2020/12/18 00:21:56;;;;;;;20.27;9.97;;;7.20;93.80;;;;;;5041121;28;20029;-82
2020/12/18 00:24:22;;;;;;;18.20;10.23;;;7.20;93.80;;;;;;5075524;28;20020;-84
2020/12/18 00:26:48;;;;;;;20.57;10.10;;;7.20;93.90;;;;;;5073929;28;20079;-81
2020/12/18 00:29:14;;;;;;;20.77;10.47;;;7.10;94.00;;;;;;5074607;28;20027;-82
2020/12/18 00:31:40;;;;;;;19.57;9.23;;;7.10;94.10;;;;;;5075113;28;20566;-82
2020/12/18 00:34:05;;;;;;;20.60;11.43;;;7.20;94.20;;;;;;5075472;28;20107;-81
2020/12/18 00:36:31;;;;;;;21.63;10.77;;;7.20;94.20;;;;;;5074387;28;20071;-82
2020/12/18 00:38:57;;;;;;;20.43;11.07;;;7.10;94.10;;;;;;5057554;28;20032;-73
2020/12/18 00:41:22;;;;;;;25.93;11.63;;;7.10;94.10;;;;;;5057145;28;20036;-74
2020/12/18 00:43:48;;;;;;;20.17;11.93;;;7.10;94.20;;;;;;5074545;28;20028;-73
2020/12/18 00:46:13;;;;;;;26.07;12.40;;;7.10;94.20;;;;;;5073117;28;20028;-73
2020/12/18 00:48:39;;;;;;;24.37;11.87;;;7.10;94.20;;;;;;5073110;28;20036;-73
2020/12/18 00:51:05;;;;;;;25.10;12.80;;;7.00;94.20;;;;;;5072974;28;20040;-73
2020/12/18 00:53:33;;;;;;;22.50;12.63;;;7.00;94.30;;;;;;5074985;28;20036;-72
2020/12/18 00:55:58;;;;;;;25.03;12.53;;;7.10;94.40;;;;;;5073188;28;20044;-73
2020/12/18 00:58:24;;;;;;;22.10;12.47;;;7.10;94.40;;;;;;5074032;28;20041;-72
2020/12/18 01:00:50;;;;;;;22.53;12.13;;;7.10;94.50;;;;;;5056276;28;20032;-73
2020/12/18 01:03:15;;;;;;;21.90;11.40;;;7.10;94.40;;;;;;5074021;28;20400;-72
2020/12/18 01:05:41;;;;;;;25.03;12.70;;;7.10;94.50;;;;;;5075104;28;20052;-73
2020/12/18 01:08:06;;;;;;;19.37;10.93;;;7.10;94.40;;;;;;5073765;28;20033;-72
2020/12/18 01:10:32;;;;;;;20.93;11.23;;;7.10;94.40;;;;;;5074431;28;20086;-73
2020/12/18 01:12:58;;;;;;;20.67;10.83;;;7.00;94.70;;;;;;5074371;28;20495;-72
2020/12/18 01:15:24;;;;;;;24.00;11.63;;;7.00;94.40;;;;;;5073465;28;20067;-73
2020/12/18 01:17:49;;;;;;;22.47;10.20;;;7.10;94.40;;;;;;5072619;28;20082;-73
2020/12/18 01:20:15;;;;;;;18.90;10.63;;;7.00;94.40;;;;;;5073050;28;20027;-73
2020/12/18 01:22:41;;;;;;;20.47;9.83;;;7.00;94.40;;;;;;5071849;28;20032;-73
2020/12/18 01:25:08;;;;;;;20.87;11.03;;;7.00;94.40;;;;;;5074155;28;20372;-72
2020/12/18 01:27:34;;;;;;;20.53;11.33;;;7.00;94.40;;;;;;5074201;28;20016;-73
2020/12/18 01:30:00;;;;;;;22.27;10.63;;;7.00;94.50;;;;;;5073952;28;20392;-72
2020/12/18 01:32:25;;;;;;;18.50;9.87;;;6.90;94.50;;;;;;5073725;28;20103;-73
2020/12/18 01:34:51;;;;;;;18.07;10.27;;;6.90;94.50;;;;;;5073581;28;20158;-72
2020/12/18 01:37:17;;;;;;;24.80;10.37;;;6.90;94.50;;;;;;5073996;28;20079;-72
2020/12/18 01:39:42;;;;;;;26.20;10.97;;;7.00;94.50;;;;;;5072402;28;20426;-73
2020/12/18 01:42:08;;;;;;;17.43;10.07;;;7.00;94.50;;;;;;5073989;28;20029;-73
2020/12/18 01:44:34;;;;;;;20.87;10.20;;;6.90;94.40;;;;;;5073554;28;20108;-73
2020/12/18 01:46:59;;;;;;;19.10;9.27;;;7.00;94.50;;;;;;5072010;28;20052;-72
2020/12/18 01:49:26;;;;;;;21.60;10.30;;;6.80;94.40;;;;;;5072330;28;20036;-72
2020/12/18 01:51:53;;;;;;;19.80;9.40;;;6.90;94.40;;;;;;5073386;28;20060;-72
2020/12/18 01:54:22;;;;;;;18.33;9.50;;;6.90;94.40;;;;;;5073124;28;20021;-72
2020/12/18 01:56:48;;;;;;;21.00;9.83;;;6.90;94.40;;;;;;5073415;28;20052;-72
2020/12/18 01:59:15;;;;;;;19.63;9.77;;;6.80;94.40;;;;;;5073155;28;20495;-72
2020/12/18 02:01:41;;;;;;;23.90;10.17;;;6.80;94.50;;;;;;5071811;28;20045;-72
2020/12/18 02:04:07;;;;;;;18.93;8.80;;;6.80;94.40;;;;;;5055963;28;20119;-73
2020/12/18 02:06:36;;;;;;;17.93;10.30;;;6.80;94.40;;;;;;5073453;28;20016;-71
2020/12/18 02:09:03;;;;;;;19.93;9.27;;;6.80;94.40;;;;;;5072255;28;20024;-81
2020/12/18 02:11:29;;;;;;;21.17;9.00;;;6.80;94.50;;;;;;5071922;28;20028;-72
2020/12/18 02:13:54;;;;;;;20.27;8.07;;;6.80;94.50;;;;;;5073244;28;20468;-73
2020/12/18 02:16:20;;;;;;;16.80;8.73;;;6.80;94.60;;;;;;5055237;28;20044;-73
2020/12/18 02:18:50;;;;;;;21.50;9.83;;;6.80;94.70;;;;;;5072818;28;20064;-72
2020/12/18 02:21:16;;;;;;;19.43;9.13;;;6.80;94.70;;;;;;5071414;28;20029;-73
2020/12/18 02:23:43;;;;;;;22.10;9.33;;;6.80;94.60;;;;;;5055177;28;20380;-72
2020/12/18 02:26:12;;;;;;;22.77;9.67;;;6.80;94.60;;;;;;5054979;28;20529;-72
2020/12/18 02:28:43;;;;;;;20.20;9.43;;;6.80;94.60;;;;;;5072982;28;20028;-72
2020/12/18 02:31:09;;;;;;;22.90;8.90;;;6.70;94.60;;;;;;5071637;28;20495;-73
2020/12/18 02:33:36;;;;;;;18.17;8.20;;;6.70;94.60;;;;;;5074057;28;20036;-72
2020/12/18 02:36:02;;;;;;;17.20;8.23;;;6.80;94.60;;;;;;5076650;28;20036;-72
2020/12/18 02:38:29;;;;;;;24.43;9.57;;;6.80;94.60;;;;;;5075516;28;20129;-72
2020/12/18 02:40:54;;;;;;;17.53;9.93;;;6.70;94.70;;;;;;5076928;28;20654;-72
2020/12/18 02:43:21;;;;;;;18.47;8.33;;;6.80;94.70;;;;;;5058681;28;20048;-72
2020/12/18 02:45:47;;;;;;;15.03;7.90;;;6.80;94.80;;;;;;5076432;28;20099;-73
2020/12/18 02:48:13;;;;;;;25.40;8.80;;;6.80;94.80;;;;;;5075232;28;20041;-72
2020/12/18 02:50:38;;;;;;;21.57;9.83;;;6.70;94.70;;;;;;5075225;28;20033;-72
2020/12/18 02:53:15;;;;;;;15.53;8.20;;;6.80;94.80;;;;;;5075042;28;20408;-73
2020/12/18 02:55:41;;;;;;;18.37;8.87;;;6.80;94.70;;;;;;5076326;28;20490;-72
2020/12/18 02:58:10;;;;;;;22.03;9.17;;;6.80;94.80;;;;;;5074974;28;20480;-72
2020/12/18 03:00:37;;;;;;;19.00;8.53;;;6.70;94.70;;;;;;5076270;28;20025;-71
2020/12/18 03:03:04;;;;;;;19.50;7.90;;;6.70;94.70;;;;;;5074782;28;20036;-73
2020/12/18 03:05:29;;;;;;;19.90;8.30;;;6.70;94.60;;;;;;5074860;28;20024;-72
2020/12/18 03:07:55;;;;;;;20.77;9.30;;;6.70;94.70;;;;;;5076091;28;20507;-72
2020/12/18 03:10:21;;;;;;;19.93;8.07;;;6.70;94.70;;;;;;5074931;28;20032;-71
2020/12/18 03:12:46;;;;;;;18.83;8.50;;;6.70;94.70;;;;;;5074874;28;20033;-72
2020/12/18 03:15:12;;;;;;;16.80;7.83;;;6.70;94.70;;;;;;5076116;28;20458;-72
2020/12/18 03:17:38;;;;;;;16.43;7.33;;;6.70;94.70;;;;;;5074800;28;20388;-71
2020/12/18 03:20:04;;;;;;;21.30;8.70;;;6.70;94.70;;;;;;5057854;28;20028;-73
2020/12/18 03:22:31;;;;;;;14.50;7.33;;;6.70;94.70;;;;;;5057895;28;20032;-73
2020/12/18 03:25:00;;;;;;;18.87;8.40;;;6.70;94.70;;;;;;5075862;28;20021;-73
2020/12/18 03:27:26;;;;;;;17.70;8.97;;;6.70;94.80;;;;;;5074578;28;20028;-72
2020/12/18 03:29:52;;;;;;;19.53;8.57;;;6.60;94.70;;;;;;5074477;28;20067;-73
2020/12/18 03:32:17;;;;;;;18.43;8.37;;;6.60;94.70;;;;;;5074499;28;20029;-72
2020/12/18 03:34:43;;;;;;;18.10;7.60;;;6.70;94.70;;;;;;5075512;28;20032;-72
2020/12/18 03:37:09;;;;;;;20.37;8.40;;;6.60;94.70;;;;;;5075554;28;20127;-73
2020/12/18 03:39:35;;;;;;;17.37;8.47;;;6.60;94.70;;;;;;5057563;28;20041;-72
2020/12/18 03:42:00;;;;;;;16.77;8.10;;;6.60;94.80;;;;;;5074121;28;20020;-72
2020/12/18 03:44:26;;;;;;;18.37;7.47;;;6.60;94.80;;;;;;5075432;28;20028;-72
2020/12/18 03:46:52;;;;;;;17.93;7.57;;;6.60;94.70;;;;;;5074742;28;20056;-73
2020/12/18 03:49:18;;;;;;;22.37;9.00;;;6.70;94.80;;;;;;5075336;28;20032;-72
2020/12/18 03:51:43;;;;;;;22.13;8.03;;;6.60;95.00;;;;;;5074166;28;20033;-74
2020/12/18 03:54:09;;;;;;;19.27;8.00;;;6.60;94.80;;;;;;5074118;28;20109;-73
2020/12/18 03:56:35;;;;;;;22.37;8.43;;;6.60;94.80;;;;;;5075226;28;20056;-72
2020/12/18 03:59:00;;;;;;;17.90;7.80;;;6.60;94.90;;;;;;5075310;28;20085;-73
2020/12/18 04:01:26;;;;;;;16.50;7.90;;;6.60;94.80;;;;;;5074921;28;20051;-73
2020/12/18 04:03:51;;;;;;;14.90;6.93;;;6.60;94.80;;;;;;5075181;28;20031;-74
2020/12/18 04:06:17;;;;;;;15.00;8.17;;;6.60;95.10;;;;;;5075027;28;20078;-73
2020/12/18 04:08:43;;;;;;;18.17;8.10;;;6.60;94.90;;;;;;5075048;28;20067;-72
2020/12/18 04:11:09;;;;;;;20.00;8.00;;;6.60;94.90;;;;;;5074948;28;20043;-72
2020/12/18 04:13:35;;;;;;;18.67;7.20;;;6.60;94.90;;;;;;5073696;28;20488;-73
2020/12/18 04:16:01;;;;;;;13.90;7.63;;;6.60;94.90;;;;;;5073686;28;20033;-72
2020/12/18 04:18:27;;;;;;;25.50;9.00;;;6.60;95.00;;;;;;5074641;28;20081;-73
2020/12/18 04:20:52;;;;;;;19.70;8.50;;;6.60;95.00;;;;;;5040165;28;20028;-73
2020/12/18 04:23:18;;;;;;;20.57;7.90;;;6.60;95.00;;;;;;5073425;28;20040;-73
2020/12/18 04:25:44;;;;;;;16.07;7.77;;;6.60;95.00;;;;;;5074736;28;20031;-74
2020/12/18 04:28:10;;;;;;;20.47;7.20;;;6.60;95.10;;;;;;5075071;28;20483;-73
2020/12/18 04:30:35;;;;;;;13.63;7.20;;;6.60;95.10;;;;;;5074600;28;20036;-74
2020/12/18 04:33:01;;;;;;;16.43;7.57;;;6.70;95.00;;;;;;5074532;28;20028;-73
2020/12/18 04:35:27;;;;;;;18.63;7.47;;;6.60;95.00;;;;;;5074373;28;20037;-73
2020/12/18 04:37:52;;;;;;;17.83;7.60;;;6.70;95.10;;;;;;5074377;28;20036;-72
2020/12/18 04:40:18;;;;;;;16.57;7.70;;;6.60;95.00;;;;;;5074333;28;20489;-72
2020/12/18 04:42:44;;;;;;;16.47;7.67;;;6.60;95.00;;;;;;5073047;28;20020;-72
2020/12/18 04:45:10;;;;;;;13.87;7.23;;;6.70;95.10;;;;;;5074414;28;20755;-74
2020/12/18 04:47:40;;;;;;;15.80;7.10;;;6.60;95.00;;;;;;5074252;28;20090;-73
2020/12/18 04:50:07;;;;;;;17.67;7.47;;;6.60;95.00;;;;;;5074462;28;20357;-73
2020/12/18 04:52:33;;;;;;;19.80;7.37;;;6.60;95.00;;;;;;5072718;28;20071;-72
2020/12/18 04:54:59;;;;;;;16.77;6.70;;;6.60;95.00;;;;;;5072952;28;20040;-72
2020/12/18 04:57:28;;;;;;;16.50;7.40;;;6.70;95.00;;;;;;5073902;28;20115;-72
2020/12/18 04:59:55;;;;;;;14.10;7.23;;;6.70;95.00;;;;;;5073973;28;20473;-74
2020/12/18 05:02:24;;;;;;;15.43;6.87;;;6.60;95.00;;;;;;5073912;28;20573;-73
2020/12/18 05:04:53;;;;;;;14.00;6.07;;;6.60;95.00;;;;;;5073927;28;20032;-73
2020/12/18 05:07:19;;;;;;;21.57;7.53;;;6.60;95.00;;;;;;5073847;28;20025;-73
2020/12/18 05:09:53;;;;;;;14.27;7.53;;;6.60;95.00;;;;;;5073784;28;20032;-74
2020/12/18 05:12:19;;;;;;;19.67;7.45;;;6.60;95.00;;;;;;5072625;28;20465;-74
2020/12/18 05:14:44;;;;;;;14.07;6.57;;;6.60;95.00;;;;;;5073719;28;20029;-72
2020/12/18 05:17:11;;;;;;;15.87;7.73;;;6.60;95.00;;;;;;5072300;28;20072;-74
2020/12/18 05:19:42;;;;;;;16.93;6.77;;;6.60;95.00;;;;;;5073700;28;20380;-73
2020/12/18 05:22:13;;;;;;;16.27;7.33;;;6.60;95.00;;;;;;5074140;28;20012;-72
2020/12/18 05:24:40;;;;;;;14.27;6.63;;;6.60;95.00;;;;;;5073637;28;20086;-73
2020/12/18 05:27:06;;;;;;;18.83;7.57;;;6.60;95.00;;;;;;5073650;28;20047;-74
2020/12/18 05:29:35;;;;;;;15.67;6.87;;;6.60;95.00;;;;;;5073525;28;20017;-73
2020/12/18 05:32:01;;;;;;;13.53;6.67;;;6.60;95.00;;;;;;5073405;28;20051;-75
2020/12/18 05:34:28;;;;;;;15.03;6.83;;;6.70;95.00;;;;;;5073253;28;20459;-73
2020/12/18 05:36:54;;;;;;;20.57;7.67;;;6.60;95.00;;;;;;5073634;28;20024;-73
2020/12/18 05:39:20;;;;;;;18.17;7.13;;;6.60;94.90;;;;;;5072147;28;20028;-73
2020/12/18 05:42:00;;;;;;;17.57;7.37;;;6.60;94.90;;;;;;5072146;28;20495;-72
2020/12/18 05:44:27;;;;;;;15.43;6.30;;;6.60;95.10;;;;;;5073440;28;20013;-73
2020/12/18 05:47:02;;;;;;;13.77;6.17;;;6.60;94.90;;;;;;5073391;28;20025;-82
2020/12/18 05:49:30;;;;;;;18.07;6.47;;;6.60;94.90;;;;;;5073512;28;20032;-82
2020/12/18 05:51:55;;;;;;;14.07;6.10;;;6.60;94.90;;;;;;5072204;28;20039;-81
2020/12/18 05:54:21;;;;;;;14.70;6.70;;;6.60;94.90;;;;;;5072475;28;20403;-83
2020/12/18 05:56:49;;;;;;;12.00;5.47;;;6.60;94.90;;;;;;5072098;28;20052;-82
2020/12/18 05:59:16;;;;;;;16.37;6.20;;;6.60;95.00;;;;;;5072140;28;20381;-81
2020/12/18 06:01:54;;;;;;;12.67;5.73;;;6.60;95.00;;;;;;5071830;28;20032;-81
2020/12/18 06:04:22;;;;;;;14.93;6.23;;;6.60;95.00;;;;;;5071988;28;20070;-82
2020/12/18 06:06:50;;;;;;;14.67;5.77;;;6.60;95.00;;;;;;5073294;28;20031;-81
2020/12/18 06:09:18;;;;;;;11.30;5.17;;;6.60;95.00;;;;;;5074124;28;20484;-81
2020/12/18 06:11:44;;;;;;;12.60;6.23;;;6.60;95.00;;;;;;5077481;28;20059;-80
2020/12/18 06:14:12;;;;;;;12.43;5.17;;;6.70;95.10;;;;;;5077246;28;20071;-80
2020/12/18 06:16:49;;;;;;;12.63;5.47;;;6.70;95.10;;;;;;5076088;28;20361;-81
2020/12/18 06:19:17;;;;;;;17.37;5.33;;;6.70;95.10;;;;;;5076114;28;20036;-82
2020/12/18 06:21:53;;;;;;;11.63;4.90;;;6.80;95.10;;;;;;5064902;28;20021;-82
2020/12/18 06:24:19;;;;;;;15.30;5.13;;;6.80;95.10;;;;;;5055827;28;20431;-81
2020/12/18 06:26:46;;;;;;;18.17;5.50;;;6.80;95.10;;;;;;5039441;28;20029;-81
2020/12/18 06:29:17;;;;;;;16.60;5.27;;;6.80;95.10;;;;;;5074275;28;20037;-81
2020/12/18 06:31:42;;;;;;;15.13;5.63;;;6.80;95.10;;;;;;5078439;28;20025;-82
2020/12/18 06:34:10;;;;;;;13.40;4.93;;;6.90;95.10;;;;;;5076070;28;20036;-82
2020/12/18 06:36:48;;;;;;;13.23;5.23;;;6.90;95.10;;;;;;5076012;28;20020;-82
2020/12/18 06:39:34;;;;;;;15.37;4.67;;;7.00;95.10;;;;;;5077971;28;20120;-80
2020/12/18 06:42:13;;;;;;;12.30;4.20;;;7.00;95.00;;;;;;5076038;28;20013;-80
2020/12/18 06:44:53;;;;;;;16.50;5.13;;;6.90;95.00;;;;;;5077710;28;20020;-82
2020/12/18 06:47:28;;;;;;;10.70;3.83;;;7.10;95.00;;;;;;5077563;28;20017;-83
2020/12/18 06:50:01;;;;;;;20.10;4.70;;;7.00;94.90;;;;;;5076172;28;20082;-81
2020/12/18 06:52:57;;;;;;;13.10;4.53;;;7.10;94.90;;;;;;5077250;28;20028;-82
2020/12/18 06:55:25;;;;;;;9.77;3.93;;;7.10;94.80;;;;;;5071670;28;20036;-83
2020/12/18 06:58:09;;;;;;;10.67;4.47;;;7.20;94.80;;;;;;5075862;28;20082;-81
2020/12/18 07:00:42;;;;;;;15.25;4.65;;;7.10;94.80;;;;;;5077583;28;20025;-81
2020/12/18 07:03:09;;;;;;;14.13;4.80;;;7.10;94.70;;;;;;5075533;28;20052;-81
2020/12/18 07:05:42;;;;;;;17.10;5.53;;;7.10;94.70;;;;;;5059006;28;20016;-82
2020/12/18 07:08:15;;;;;;;11.75;4.45;;;7.10;94.70;;;;;;5075695;28;20073;-82
2020/12/18 07:10:46;;;;;;;11.60;4.50;;;7.10;94.70;;;;;;5075223;28;20427;-81
2020/12/18 07:13:16;;;;;;;8.70;4.13;;;7.10;94.70;;;;;;5075700;28;20044;-81
2020/12/18 07:15:45;;;;;;;12.70;4.43;;;7.20;94.80;;;;;;5075482;28;20383;-83
2020/12/18 07:18:22;;;;;;;14.10;5.03;;;7.20;94.80;;;;;;5075084;28;20387;-82
2020/12/18 07:20:49;;;;;;;12.17;4.50;;;7.20;94.80;;;;;;5072507;28;20051;-83
2020/12/18 07:23:15;;;;;;;13.57;4.70;;;7.20;94.80;;;;;;5058712;28;20523;-82
2020/12/18 07:25:41;;;;;;;11.33;5.23;;;7.20;94.80;;;;;;5056942;28;20525;-83
2020/12/18 07:28:07;;;;;;;12.10;4.43;;;7.30;94.80;;;;;;5056721;28;20053;-83
2020/12/18 07:30:37;;;;;;;15.20;5.17;;;7.30;94.80;;;;;;5056419;28;20013;-83
2020/12/18 07:33:03;;;;;;;15.13;4.67;;;7.40;94.80;;;;;;5067473;28;20024;-79
2020/12/18 07:35:29;;;;;;;10.33;4.23;;;7.40;95.00;;;;;;5074715;28;20036;-82
2020/12/18 07:37:55;;;;;;;11.27;4.20;;;7.50;94.80;;;;;;5058787;28;20024;-82
2020/12/18 07:40:20;;;;;;;13.37;4.37;;;7.40;94.70;;;;;;5037953;28;20490;-82
2020/12/18 07:42:46;;;;;;;9.87;3.70;;;7.50;94.70;;;;;;5054337;28;20037;-82
2020/12/18 07:45:12;;;;;;;11.83;4.20;;;7.50;94.60;;;;;;5055517;28;20024;-80
2020/12/18 07:47:38;;;;;;;14.03;4.53;;;7.50;94.60;;;;;;5068696;28;20086;-82
2020/12/18 07:50:09;;;;;;;12.90;4.53;;;7.60;94.50;;;;;;5074314;28;20033;-82
2020/12/18 07:52:36;;;;;;;10.17;3.53;;;7.60;94.50;;;;;;5074309;28;20028;-82
2020/12/18 07:55:02;;;;;;;8.00;3.50;;;7.60;94.40;;;;;;5054082;28;20025;-84
2020/12/18 07:57:29;;;;;;;11.87;3.23;;;7.70;94.40;;;;;;5053863;28;20029;-81
2020/12/18 08:00:08;;;;;;;9.90;3.90;;;7.70;94.40;;;;;;5054062;28;20025;-82
2020/12/18 08:02:34;;;;;;;7.07;3.70;;;7.70;94.40;;;;;;5053929;28;20040;-82
2020/12/18 08:05:03;;;;;;;11.40;3.40;;;7.80;94.30;;;;;;5053870;28;20543;-82
2020/12/18 08:07:29;;;;;;;12.30;3.77;;;7.80;94.20;;;;;;5053624;28;20021;-82
2020/12/18 08:10:03;;;;;;;12.03;4.10;;;7.90;94.40;;;;;;5053703;28;20029;-82
2020/12/18 08:12:29;;;;;;;15.77;4.43;;;7.90;94.00;;;;;;5055064;28;20033;-81
2020/12/18 08:15:12;;;;;;;11.13;3.43;;;7.90;94.00;;;;;;5053797;28;20512;-82
2020/12/18 08:17:38;;;;;;;6.80;3.00;;;7.90;94.00;;;;;;5054763;28;20029;-83
2020/12/18 08:20:06;;;;;;;10.87;3.37;;;8.00;93.90;;;;;;5068587;28;20078;-82
2020/12/18 08:22:38;;;;;;;11.37;3.53;;;8.00;93.90;;;;;;5074811;28;20013;-82
2020/12/18 08:25:06;;;;;;;14.43;3.77;;;8.00;93.80;;;;;;5073543;28;20154;-82
2020/12/18 08:27:37;;;;;;;11.83;3.67;;;8.10;93.80;;;;;;5074859;28;20020;-81
2020/12/18 08:30:05;;;;;;;13.37;4.07;;;8.10;93.70;;;;;;5074554;28;20056;-82
2020/12/18 08:32:33;;;;;;;9.33;3.80;;;8.10;93.70;;;;;;5074124;28;20021;-80
2020/12/18 08:35:00;;;;;;;10.77;3.87;;;8.10;93.70;;;;;;5056619;28;20025;-81
2020/12/18 08:37:26;;;;;;;14.83;4.50;;;8.10;93.50;;;;;;5074601;28;20043;-80
2020/12/18 08:39:52;;;;;;;10.53;4.43;;;8.10;93.40;;;;;;5073617;28;20413;-82
2020/12/18 08:42:18;;;;;;;14.10;4.23;;;8.20;93.40;;;;;;5056514;28;20056;-83
2020/12/18 08:44:44;;;;;;;17.30;4.53;;;8.10;93.40;;;;;;5056500;28;20033;-82
2020/12/18 08:47:24;;;;;;;15.57;4.23;;;8.20;93.30;;;;;;5062651;28;20071;-82
2020/12/18 08:49:52;;;;;;;11.67;4.50;;;8.20;93.20;;;;;;5058651;28;20045;-83
2020/12/18 08:52:25;;;;;;;12.43;3.67;;;8.20;93.20;;;;;;5070512;28;20384;-82
2020/12/18 08:55:06;;;;;;;17.55;4.95;;;8.30;93.20;;;;;;5066611;28;20033;-83
2020/12/18 08:57:33;;;;;;;9.23;4.50;;;8.20;93.20;;;;;;5072823;28;20439;-83
2020/12/18 09:00:07;;;;;;;15.73;5.53;;;8.20;93.20;;;;;;5075393;28;20031;-83
2020/12/18 09:02:39;;;;;;;8.83;4.83;;;8.30;93.20;;;;;;5075634;28;20400;-83
2020/12/18 09:05:18;;;;;;;12.73;4.70;;;8.30;93.10;;;;;;5075857;28;20107;-83
2020/12/18 09:07:48;;;;;;;11.60;4.63;;;8.30;93.00;;;;;;5075445;28;20040;-84
2020/12/18 09:10:26;;;;;;;11.73;5.07;;;8.40;93.00;;;;;;5054616;28;20025;-84
2020/12/18 09:12:51;;;;;;;20.93;5.17;;;8.40;93.00;;;;;;5056198;28;20033;-83
2020/12/18 09:15:26;;;;;;;14.30;4.70;;;8.40;93.00;;;;;;5038964;28;20163;-83
2020/12/18 09:18:08;;;;;;;8.73;4.93;;;8.40;93.10;;;;;;5068916;28;20024;-82
2020/12/18 09:20:37;;;;;;;12.30;5.70;;;8.40;93.30;;;;;;5055804;28;20029;-85
2020/12/18 09:23:05;;;;;;;12.20;5.50;;;8.40;92.90;;;;;;5055645;28;20017;-80
2020/12/18 09:25:36;;;;;;;12.10;5.17;;;8.50;92.90;;;;;;5054822;28;20068;-85
2020/12/18 09:28:02;;;;;;;11.17;6.00;;;8.60;92.90;;;;;;5054578;28;20025;-83
2020/12/18 09:30:30;;;;;;;19.70;5.80;;;8.70;92.90;;;;;;5055437;28;20114;-83
2020/12/18 09:33:09;;;;;;;14.10;4.90;;;8.60;92.70;;;;;;5054663;28;20499;-82
2020/12/18 09:35:36;;;;;;;13.60;6.10;;;8.60;92.80;;;;;;5055934;28;20055;-82
2020/12/18 09:38:01;;;;;;;9.80;5.00;;;8.60;92.80;;;;;;5054040;28;20040;-82
2020/12/18 09:40:27;;;;;;;14.17;5.10;;;8.70;92.80;;;;;;5038461;28;20029;-82
2020/12/18 09:42:53;;;;;;;13.20;5.30;;;8.70;92.70;;;;;;5054139;28;20029;-82
2020/12/18 09:45:18;;;;;;;10.30;4.60;;;8.80;92.80;;;;;;5053848;28;20108;-81
2020/12/18 09:47:44;;;;;;;12.67;4.37;;;8.90;93.00;;;;;;5021905;28;20135;-82
2020/12/18 09:50:10;;;;;;;11.97;3.53;;;9.10;93.00;;;;;;5022823;28;20036;-81
2020/12/18 09:52:35;;;;;;;10.00;3.00;;;9.30;93.30;;;;;;5054097;28;20075;-82
2020/12/18 09:55:01;;;;;;;8.23;2.87;;;9.90;93.90;;;;;;5037345;28;20392;-81
2020/12/18 09:57:26;;;;;;;7.83;2.07;;;10.30;94.10;;;;;;5058237;28;20025;-82
2020/12/18 09:59:52;;;;;;;8.60;2.10;;;10.80;93.60;;;;;;5073770;28;20104;-83
2020/12/18 10:02:18;;;;;;;11.73;2.40;;;11.40;93.60;;;;;;5063959;28;20485;-82
2020/12/18 10:04:43;;;;;;;9.05;2.15;;;11.80;92.30;;;;;;5053965;28;20033;-82
2020/12/18 10:07:09;;;;;;;6.20;1.88;;;12.40;91.90;;;;;;5054725;28;20469;-82
2020/12/18 10:09:34;;;;;;;12.60;2.33;;;12.90;90.60;;;;;;5052568;28;20033;-75
2020/12/18 10:12:00;;;;;;;7.88;2.00;;;13.20;89.10;;;;;;5035855;28;20036;-75
2020/12/18 10:14:26;;;;;;;6.35;1.58;;;13.50;86.20;;;;;;5053621;28;20029;-75
2020/12/18 10:16:51;;;;;;;7.82;2.17;;;13.80;85.60;;;;;;5052257;28;20039;-74
2020/12/18 10:19:17;;;;;;;4.50;1.65;;;14.10;83.80;;;;;;5052946;28;20115;-75
2020/12/18 10:21:42;;;;;;;5.28;1.52;;;14.30;82.70;;;;;;5052637;28;20037;-74
2020/12/18 10:24:08;;;;;;;6.85;1.75;;;14.70;80.10;;;;;;5034866;28;20036;-75
2020/12/18 10:26:34;;;;;;;6.45;1.88;;;15.00;79.40;;;;;;5052829;28;20029;-75
2020/12/18 10:28:59;;;;;;;10.00;1.75;;;15.20;76.80;;;;;;5052889;28;20025;-76
2020/12/18 10:31:25;;;;;;;5.93;1.58;;;15.30;74.50;;;;;;5051881;28;20056;-77
2020/12/18 10:33:51;;;;;;;3.72;1.50;;;15.30;72.20;;;;;;5052765;28;20108;-75
2020/12/18 10:36:16;;;;;;;7.75;2.15;;;15.10;70.10;;;;;;5051523;28;20086;-75
2020/12/18 10:38:42;;;;;;;10.50;2.03;;;14.80;70.10;;;;;;5053002;28;20039;-75
2020/12/18 10:41:09;;;;;;;9.52;2.10;;;14.50;70.30;;;;;;5051452;28;20029;-74
2020/12/18 10:43:35;;;;;;;7.20;1.95;;;14.30;70.40;;;;;;5052842;28;20029;-78
2020/12/18 10:46:01;;;;;;;9.52;1.80;;;14.20;71.30;;;;;;5034815;28;20025;-76
2020/12/18 10:48:28;;;;;;;7.28;1.55;;;14.30;70.80;;;;;;5034885;28;20037;-77
2020/12/18 10:50:53;;;;;;;6.32;1.33;;;14.50;72.10;;;;;;5035773;28;20029;-77
2020/12/18 10:53:19;;;;;;;5.28;1.58;;;14.80;71.40;;;;;;5035208;28;20086;-78
2020/12/18 10:55:45;;;;;;;6.03;1.30;;;15.00;71.50;;;;;;5021237;28;20025;-75
2020/12/18 10:58:10;;;;;;;4.97;1.48;;;15.40;71.00;;;;;;5056253;28;20033;-77
2020/12/18 11:00:36;;;;;;;7.18;1.70;;;15.60;68.80;;;;;;5022217;28;20044;-77
2020/12/18 11:03:02;;;;;;;6.60;1.38;;;15.80;68.20;;;;;;5038497;28;20053;-76
2020/12/18 11:05:28;;;;;;;6.65;1.67;;;15.90;68.40;;;;;;5044095;28;20036;-77
2020/12/18 11:07:53;;;;;;;9.27;2.15;;;16.10;67.20;;;;;;5058559;28;20119;-76
2020/12/18 11:10:19;;;;;;;3.97;1.17;;;16.20;66.70;;;;;;5041648;28;20060;-76
2020/12/18 11:12:45;;;;;;;8.95;2.22;;;16.20;66.10;;;;;;5073032;28;20032;-77
2020/12/18 11:15:11;;;;;;;8.93;2.00;;;16.20;64.30;;;;;;5048994;28;20067;-76
2020/12/18 11:17:36;;;;;;;8.43;1.60;;;16.10;65.30;;;;;;5037967;28;20059;-74
2020/12/18 11:20:03;;;;;;;5.68;1.08;;;16.20;66.00;;;;;;5063406;28;20384;-76
2020/12/18 11:22:28;;;;;;;9.02;1.70;;;16.30;65.50;;;;;;5037333;28;20021;-75
2020/12/18 11:24:54;;;;;;;6.22;1.48;;;16.30;65.40;;;;;;5037620;28;20195;-75
2020/12/18 11:27:20;;;;;;;5.65;1.73;;;16.40;64.20;;;;;;5054403;28;20025;-75
2020/12/18 11:29:45;;;;;;;7.10;1.55;;;16.40;65.30;;;;;;5037653;28;20025;-76
2020/12/18 11:32:11;;;;;;;4.75;1.45;;;16.40;64.70;;;;;;5054462;28;20017;-75
2020/12/18 11:34:36;;;;;;;6.60;2.00;;;16.40;64.20;;;;;;5054345;28;20029;-76
2020/12/18 11:37:03;;;;;;;7.00;1.55;;;16.40;63.70;;;;;;5055657;28;20051;-74
2020/12/18 11:39:30;;;;;;;4.85;1.27;;;16.30;62.70;;;;;;5070960;28;20033;-76
2020/12/18 11:41:56;;;;;;;7.95;2.13;;;16.20;63.30;;;;;;5057681;28;20021;-84
2020/12/18 11:44:21;;;;;;;5.55;1.45;;;16.40;63.60;;;;;;5058430;28;20374;-84
2020/12/18 11:46:48;;;;;;;6.18;1.40;;;16.40;63.60;;;;;;5058441;28;20031;-87
2020/12/18 11:49:14;;;;;;;7.53;1.85;;;16.60;63.40;;;;;;5074056;28;20028;-84
2020/12/18 11:51:39;;;;;;;5.95;1.20;;;16.80;63.70;;;;;;5057390;28;20365;-86
2020/12/18 11:54:05;;;;;;;7.18;1.50;;;16.90;63.60;;;;;;5040940;28;20497;-81
2020/12/18 11:56:30;;;;;;;5.22;1.52;;;17.10;62.50;;;;;;5074301;28;20028;-86
2020/12/18 11:58:56;;;;;;;8.30;1.50;;;17.10;62.10;;;;;;5057470;28;20169;-86
2020/12/18 12:01:22;;;;;;;4.57;1.13;;;17.30;61.50;;;;;;5073965;28;20020;-85
2020/12/18 12:03:49;;;;;;;8.15;1.63;;;17.50;61.50;;;;;;5074051;28;20024;-86
2020/12/18 12:06:15;;;;;;;6.07;1.05;;;17.80;61.70;;;;;;5056818;28;20021;-77
2020/12/18 12:08:41;;;;;;;4.00;1.10;;;18.10;60.00;;;;;;5074792;28;20027;-75
2020/12/18 12:11:08;;;;;;;4.43;1.17;;;18.50;59.50;;;;;;5075037;28;20094;-77
2020/12/18 12:13:34;;;;;;;5.72;1.08;;;18.90;58.90;;;;;;5057087;28;20031;-76
2020/12/18 12:16:00;;;;;;;8.80;1.35;;;19.20;59.00;;;;;;5073396;28;20032;-76
2020/12/18 12:18:25;;;;;;;3.67;1.10;;;19.60;57.70;;;;;;5073404;28;20109;-77
2020/12/18 12:20:51;;;;;;;3.17;0.82;;;19.90;57.10;;;;;;5074379;28;20157;-77
2020/12/18 12:23:17;;;;;;;6.97;1.25;;;20.20;56.30;;;;;;5071615;28;20052;-76
2020/12/18 12:25:43;;;;;;;6.90;1.00;;;20.60;55.10;;;;;;5056625;28;20132;-76
2020/12/18 12:28:08;;;;;;;4.18;0.90;;;20.80;53.90;;;;;;5073814;28;20115;-76
2020/12/18 12:30:34;;;;;;;4.68;1.02;;;21.00;53.60;;;;;;5059306;28;20028;-76
2020/12/18 12:32:59;;;;;;;5.30;0.90;;;21.20;53.70;;;;;;5037287;28;20112;-77
2020/12/18 12:35:26;;;;;;;2.88;0.80;;;21.40;52.20;;;;;;5053468;28;20087;-79
2020/12/18 12:37:52;;;;;;;4.28;0.90;;;21.60;52.10;;;;;;5036565;28;20044;-78
2020/12/18 12:40:18;;;;;;;6.90;1.50;;;21.80;50.60;;;;;;5053060;28;20090;-77
2020/12/18 12:42:44;;;;;;;4.78;1.13;;;21.80;50.20;;;;;;5053063;28;20017;-79
2020/12/18 12:45:10;;;;;;;7.20;1.13;;;22.00;49.20;;;;;;5036669;28;20033;-81
2020/12/18 12:47:35;;;;;;;4.68;0.70;;;22.10;48.90;;;;;;5053086;28;20496;-80